createdAt,value
2018-09-09T00:01:04.348Z,7.60
2018-09-09T00:02:44.768Z,11.80
2018-09-09T00:04:22.574Z,12.00
2018-09-09T00:06:00.936Z,13.60
2018-09-09T00:07:36.636Z,13.40
2018-09-09T00:09:16.454Z,12.60
2018-09-09T00:10:51.624Z,7.40
2018-09-09T00:12:27.710Z,11.60
2018-09-09T00:14:03.927Z,10.20
2018-09-09T00:15:40.541Z,10.60
2018-09-09T00:17:16.012Z,12.80
2018-09-09T00:18:51.724Z,10.00
2018-09-09T00:20:26.529Z,10.20
2018-09-09T00:22:01.553Z,11.00
2018-09-09T00:23:37.191Z,7.00
2018-09-09T00:25:13.917Z,9.00
2018-09-09T00:26:51.668Z,9.40
2018-09-09T00:28:27.115Z,7.20
2018-09-09T00:30:03.693Z,7.60
2018-09-09T00:31:39.883Z,7.00
2018-09-09T00:33:15.431Z,8.40
2018-09-09T00:34:50.786Z,11.00
2018-09-09T00:36:26.660Z,10.00
2018-09-09T00:38:01.600Z,8.80
2018-09-09T00:39:36.535Z,11.80
2018-09-09T00:41:11.897Z,7.00
2018-09-09T00:42:47.002Z,9.60
2018-09-09T00:44:23.292Z,9.60
2018-09-09T00:45:58.604Z,10.00
2018-09-09T00:47:33.625Z,10.80
2018-09-09T00:49:13.999Z,8.80
2018-09-09T00:50:54.020Z,7.00
2018-09-09T00:52:33.813Z,9.40
2018-09-09T00:54:08.901Z,9.00
2018-09-09T00:55:44.137Z,9.80
2018-09-09T00:57:19.472Z,9.60
2018-09-09T00:58:54.280Z,9.80
2018-09-09T01:00:36.086Z,9.60
2018-09-09T01:02:15.580Z,9.00
2018-09-09T01:03:50.983Z,10.00
2018-09-09T01:05:25.928Z,9.20
2018-09-09T01:07:04.398Z,9.20
2018-09-09T01:08:39.556Z,11.40
2018-09-09T01:10:15.105Z,6.20
2018-09-09T01:11:50.446Z,8.00
2018-09-09T01:13:25.413Z,8.20
2018-09-09T01:15:04.516Z,7.80
2018-09-09T01:16:40.484Z,8.20
2018-09-09T01:18:16.080Z,9.80
2018-09-09T01:19:51.555Z,10.60
2018-09-09T01:21:26.715Z,8.40
2018-09-09T01:23:02.703Z,10.00
2018-09-09T01:24:38.934Z,9.20
2018-09-09T01:26:14.371Z,9.40
2018-09-09T01:27:50.237Z,13.00
2018-09-09T01:29:25.373Z,9.20
2018-09-09T01:31:01.081Z,10.00
2018-09-09T01:32:36.934Z,9.20
2018-09-09T01:34:11.843Z,9.40
2018-09-09T01:35:48.699Z,10.00
2018-09-09T01:37:24.736Z,9.80
2018-09-09T01:39:00.505Z,8.00
2018-09-09T01:40:35.948Z,9.40
2018-09-09T01:42:10.978Z,7.40
2018-09-09T01:43:46.369Z,9.20
2018-09-09T01:45:22.460Z,9.00
2018-09-09T01:46:59.282Z,9.20
2018-09-09T01:48:34.912Z,8.40
2018-09-09T01:50:10.355Z,9.00
2018-09-09T01:51:47.990Z,9.60
2018-09-09T01:53:23.878Z,8.20
2018-09-09T01:55:01.109Z,9.80
2018-09-09T01:56:36.338Z,9.20
2018-09-09T01:58:11.240Z,7.00
2018-09-09T01:59:50.333Z,9.80
2018-09-09T02:01:26.119Z,9.60
2018-09-09T02:03:05.859Z,10.40
2018-09-09T02:04:42.878Z,9.40
2018-09-09T02:06:18.453Z,9.00
2018-09-09T02:07:53.430Z,10.80
2018-09-09T02:09:28.694Z,11.60
2018-09-09T02:11:03.641Z,11.20
2018-09-09T02:12:40.413Z,6.00
2018-09-09T02:14:17.118Z,10.00
2018-09-09T02:15:53.133Z,10.00
2018-09-09T02:17:30.068Z,10.40
2018-09-09T02:19:17.719Z,12.80
2018-09-09T02:20:53.698Z,14.60
2018-09-09T02:22:29.428Z,11.20
2018-09-09T02:24:05.306Z,13.00
2018-09-09T02:25:40.613Z,13.80
2018-09-09T02:27:15.465Z,12.40
2018-09-09T02:28:50.320Z,10.00
2018-09-09T02:30:25.750Z,12.80
2018-09-09T02:32:00.661Z,12.80
2018-09-09T02:33:39.274Z,9.40
2018-09-09T02:35:14.364Z,9.40
2018-09-09T02:36:49.424Z,13.00
2018-09-09T02:38:24.487Z,13.00
2018-09-09T02:40:00.537Z,12.00
2018-09-09T02:41:35.591Z,13.40
2018-09-09T02:43:11.394Z,10.40
2018-09-09T02:44:46.781Z,10.00
2018-09-09T02:46:23.327Z,8.60
2018-09-09T02:47:59.004Z,8.60
2018-09-09T02:49:34.108Z,9.60
2018-09-09T02:51:09.213Z,9.40
2018-09-09T02:52:44.614Z,10.80
2018-09-09T02:54:19.848Z,9.20
2018-09-09T02:55:54.655Z,10.00
2018-09-09T02:57:29.472Z,10.00
2018-09-09T02:59:04.813Z,11.20
2018-09-09T03:00:39.965Z,11.60
2018-09-09T03:02:14.918Z,10.00
2018-09-09T03:03:50.251Z,9.40
2018-09-09T03:05:25.259Z,6.00
2018-09-09T03:07:00.289Z,11.20
2018-09-09T03:08:35.497Z,9.20
2018-09-09T03:10:10.292Z,11.60
2018-09-09T03:11:45.237Z,5.60
2018-09-09T03:13:20.256Z,8.60
2018-09-09T03:14:55.672Z,9.60
2018-09-09T03:16:31.603Z,6.20
2018-09-09T03:18:06.502Z,8.40
2018-09-09T03:19:41.472Z,13.00
2018-09-09T03:21:16.319Z,9.00
2018-09-09T03:22:51.715Z,6.60
2018-09-09T03:24:26.742Z,11.20
2018-09-09T03:26:02.287Z,9.80
2018-09-09T03:27:37.073Z,9.60
2018-09-09T03:29:11.998Z,12.00
2018-09-09T03:30:47.255Z,12.80
2018-09-09T03:32:22.466Z,10.80
2018-09-09T03:33:58.532Z,10.40
2018-09-09T03:35:34.646Z,12.60
2018-09-09T03:37:09.959Z,12.20
2018-09-09T03:38:44.982Z,9.20
2018-09-09T03:40:19.963Z,13.40
2018-09-09T03:41:55.181Z,15.80
2018-09-09T03:43:30.015Z,9.40
2018-09-09T03:45:06.659Z,11.60
2018-09-09T03:46:42.810Z,9.40
2018-09-09T03:48:17.792Z,7.80
2018-09-09T03:49:52.856Z,10.00
2018-09-09T03:51:27.772Z,13.40
2018-09-09T03:53:02.907Z,10.00
2018-09-09T03:54:38.307Z,12.00
2018-09-09T03:56:14.400Z,10.00
2018-09-09T03:57:50.501Z,12.00
2018-09-09T03:59:26.572Z,11.20
2018-09-09T04:01:01.588Z,5.60
2018-09-09T04:02:37.067Z,9.40
2018-09-09T04:04:12.197Z,12.80
2018-09-09T04:05:47.072Z,11.60
2018-09-09T04:07:22.140Z,10.00
2018-09-09T04:08:59.017Z,7.00
2018-09-09T04:10:34.105Z,10.00
2018-09-09T04:12:09.581Z,9.00
2018-09-09T04:13:45.059Z,7.00
2018-09-09T04:15:20.231Z,12.00
2018-09-09T04:16:55.268Z,12.40
2018-09-09T04:18:30.687Z,14.20
2018-09-09T04:20:05.867Z,12.00
2018-09-09T04:21:48.395Z,12.20
2018-09-09T04:23:23.698Z,12.00
2018-09-09T04:24:58.651Z,13.00
2018-09-09T04:26:33.772Z,12.00
2018-09-09T04:28:08.935Z,12.00
2018-09-09T04:29:43.996Z,9.40
2018-09-09T04:31:19.160Z,12.00
2018-09-09T04:32:54.051Z,10.00
2018-09-09T04:34:29.394Z,9.60
2018-09-09T04:36:04.370Z,10.80
2018-09-09T04:37:39.357Z,10.00
2018-09-09T04:39:15.282Z,7.00
2018-09-09T04:40:50.240Z,11.20
2018-09-09T04:42:25.960Z,9.00
2018-09-09T04:44:00.848Z,10.00
2018-09-09T04:45:35.829Z,12.60
2018-09-09T04:47:11.776Z,11.60
2018-09-09T04:48:46.620Z,12.00
2018-09-09T04:50:22.014Z,9.40
2018-09-09T04:51:56.955Z,9.00
2018-09-09T04:53:32.483Z,10.00
2018-09-09T04:55:07.530Z,9.80
2018-09-09T04:56:42.671Z,9.40
2018-09-09T04:58:18.835Z,10.00
2018-09-09T04:59:54.156Z,9.20
2018-09-09T05:01:29.476Z,7.00
2018-09-09T05:03:04.488Z,9.60
2018-09-09T05:04:39.729Z,9.80
2018-09-09T05:06:15.467Z,8.20
2018-09-09T05:07:50.671Z,9.80
2018-09-09T05:09:26.424Z,7.00
2018-09-09T05:11:03.889Z,12.00
2018-09-09T05:12:40.202Z,9.60
2018-09-09T05:14:16.029Z,9.00
2018-09-09T05:15:51.728Z,12.00
2018-09-09T05:17:27.407Z,9.00
2018-09-09T05:19:02.745Z,7.80
2018-09-09T05:20:37.984Z,9.80
2018-09-09T05:22:13.677Z,10.00
2018-09-09T05:23:50.240Z,9.00
2018-09-09T05:25:25.181Z,12.00
2018-09-09T05:27:00.955Z,12.00
2018-09-09T05:28:35.966Z,12.80
2018-09-09T05:30:13.060Z,10.40
2018-09-09T05:31:48.773Z,10.40
2018-09-09T05:33:24.571Z,11.80
2018-09-09T05:34:59.652Z,12.20
2018-09-09T05:36:34.839Z,10.60
2018-09-09T05:38:10.044Z,9.00
2018-09-09T05:39:45.211Z,11.80
2018-09-09T05:41:20.860Z,10.00
2018-09-09T05:42:56.144Z,7.00
2018-09-09T05:44:33.119Z,9.60
2018-09-09T05:46:08.735Z,9.80
2018-09-09T05:47:43.646Z,9.60
2018-09-09T05:49:18.723Z,9.40
2018-09-09T05:50:54.071Z,8.40
2018-09-09T05:52:29.226Z,14.00
2018-09-09T05:54:06.491Z,12.00
2018-09-09T05:55:46.207Z,12.80
2018-09-09T05:57:21.763Z,12.00
2018-09-09T05:58:57.115Z,13.00
2018-09-09T06:00:32.994Z,10.40
2018-09-09T06:02:10.207Z,14.60
2018-09-09T06:03:45.444Z,7.00
2018-09-09T06:05:20.365Z,10.60
2018-09-09T06:06:56.024Z,14.20
2018-09-09T06:08:30.861Z,10.60
2018-09-09T06:10:06.428Z,11.40
2018-09-09T06:11:41.642Z,11.60
2018-09-09T06:13:16.647Z,10.00
2018-09-09T06:14:51.638Z,10.00
2018-09-09T06:16:27.141Z,11.80
2018-09-09T06:18:02.998Z,11.00
2018-09-09T06:19:38.201Z,7.60
2018-09-09T06:21:13.196Z,11.80
2018-09-09T06:22:48.593Z,10.80
2018-09-09T06:24:23.898Z,11.20
2018-09-09T06:26:02.710Z,11.20
2018-09-09T06:27:40.313Z,10.20
2018-09-09T06:29:18.819Z,9.00
2018-09-09T06:30:57.337Z,10.20
2018-09-09T06:32:33.259Z,10.00
2018-09-09T06:34:09.416Z,9.20
2018-09-09T06:35:45.218Z,11.00
2018-09-09T06:37:20.348Z,10.00
2018-09-09T06:38:55.259Z,8.60
2018-09-09T06:40:30.366Z,8.00
2018-09-09T06:42:06.079Z,10.40
2018-09-09T06:43:41.313Z,8.00
2018-09-09T06:45:21.148Z,9.60
2018-09-09T06:46:57.035Z,10.60
2018-09-09T06:48:33.414Z,10.60
2018-09-09T06:50:12.131Z,11.80
2018-09-09T06:51:48.503Z,10.20
2018-09-09T06:54:33.434Z,9.20
2018-09-09T06:56:08.745Z,7.00
2018-09-09T06:57:44.099Z,10.20
2018-09-09T06:59:19.174Z,10.80
2018-09-09T07:01:06.137Z,11.40
2018-09-09T07:02:42.935Z,8.00
2018-09-09T07:04:21.298Z,8.00
2018-09-09T07:06:00.650Z,9.20
2018-09-09T07:07:45.258Z,8.00
2018-09-09T07:09:21.975Z,8.40
2018-09-09T07:11:00.474Z,8.20
2018-09-09T07:13:46.080Z,8.80
2018-09-09T07:15:26.624Z,9.40
2018-09-09T07:17:02.529Z,10.60
2018-09-09T07:18:39.175Z,9.20
2018-09-09T07:20:16.218Z,7.40
2018-09-09T07:21:51.721Z,9.00
2018-09-09T07:23:30.158Z,8.00
2018-09-09T07:25:08.005Z,8.00
2018-09-09T07:26:44.212Z,9.00
2018-09-09T07:28:20.339Z,9.00
2018-09-09T07:29:56.084Z,9.20
2018-09-09T07:31:32.656Z,9.00
2018-09-09T07:33:08.859Z,8.40
2018-09-09T07:34:43.891Z,8.00
2018-09-09T07:36:19.514Z,9.00
2018-09-09T07:37:56.532Z,9.00
2018-09-09T07:39:33.057Z,9.00
2018-09-09T07:41:11.387Z,9.00
2018-09-09T07:42:55.113Z,6.80
2018-09-09T07:44:30.982Z,8.40
2018-09-09T07:46:07.820Z,7.40
2018-09-09T07:47:45.251Z,7.80
2018-09-09T07:49:20.736Z,6.00
2018-09-09T07:50:57.945Z,9.00
2018-09-09T07:52:34.463Z,6.00
2018-09-09T07:54:11.448Z,9.60
2018-09-09T07:55:49.390Z,6.80
2018-09-09T07:57:24.744Z,7.00
2018-09-09T07:59:02.568Z,6.80
2018-09-09T08:01:49.159Z,7.00
2018-09-09T08:03:25.827Z,7.00
2018-09-09T08:05:02.762Z,8.40
2018-09-09T08:06:38.791Z,5.00
2018-09-09T08:08:14.999Z,6.00
2018-09-09T08:09:50.944Z,5.00
2018-09-09T08:11:32.022Z,6.00
2018-09-09T08:13:08.478Z,5.00
2018-09-09T08:14:46.135Z,5.00
2018-09-09T08:16:24.221Z,6.00
2018-09-09T08:18:00.090Z,6.00
2018-09-09T08:19:36.878Z,6.00
2018-09-09T08:21:12.739Z,5.40
2018-09-09T08:22:48.597Z,6.00
2018-09-09T08:24:24.778Z,4.40
2018-09-09T08:26:00.453Z,4.40
2018-09-09T08:27:37.706Z,6.00
2018-09-09T08:29:15.564Z,4.20
2018-09-09T08:30:51.440Z,6.00
2018-09-09T08:32:28.628Z,6.00
2018-09-09T08:34:04.686Z,6.00
2018-09-09T08:35:39.907Z,2.80
2018-09-09T08:37:15.318Z,6.20
2018-09-09T08:38:53.707Z,5.80
2018-09-09T08:40:41.299Z,6.40
2018-09-09T08:42:31.046Z,6.20
2018-09-09T08:44:10.239Z,5.40
2018-09-09T08:45:47.755Z,5.20
2018-09-09T08:47:25.640Z,5.60
2018-09-09T08:49:07.484Z,6.00
2018-09-09T08:50:47.501Z,4.20
2018-09-09T08:52:27.270Z,5.00
2018-09-09T08:54:04.939Z,4.60
2018-09-09T08:55:45.122Z,6.00
2018-09-09T08:57:23.891Z,6.00
2018-09-09T08:59:01.826Z,5.00
2018-09-09T09:00:38.863Z,6.00
2018-09-09T09:02:15.740Z,6.00
2018-09-09T09:03:54.486Z,4.20
2018-09-09T09:05:32.777Z,4.00
2018-09-09T09:07:10.861Z,3.40
2018-09-09T09:08:46.986Z,6.00
2018-09-09T09:10:22.771Z,3.80
2018-09-09T09:12:00.140Z,4.20
2018-09-09T09:13:36.901Z,3.60
2018-09-09T09:15:19.099Z,6.20
2018-09-09T09:16:57.615Z,4.00
2018-09-09T09:18:43.159Z,6.00
2018-09-09T09:20:19.026Z,4.80
2018-09-09T09:21:56.615Z,6.00
2018-09-09T09:23:34.475Z,5.60
2018-09-09T09:25:12.578Z,6.80
2018-09-09T09:26:48.852Z,8.00
2018-09-09T09:28:26.293Z,7.20
2018-09-09T09:30:03.645Z,5.20
2018-09-09T09:31:40.220Z,5.00
2018-09-09T09:33:16.235Z,20.40
2018-09-09T09:34:55.707Z,4.00
2018-09-09T09:36:31.384Z,5.80
2018-09-09T09:38:08.091Z,7.00
2018-09-09T09:39:46.546Z,5.20
2018-09-09T09:41:25.452Z,4.00
2018-09-09T09:43:02.228Z,6.20
2018-09-09T09:44:38.609Z,40.40
2018-09-09T09:46:19.056Z,3.60
2018-09-09T09:48:10.581Z,7.00
2018-09-09T09:49:47.965Z,3.40
2018-09-09T09:51:34.580Z,4.60
2018-09-09T09:53:10.530Z,3.20
2018-09-09T09:54:47.954Z,4.60
2018-09-09T09:56:25.529Z,3.80
2018-09-09T09:58:02.401Z,5.00
2018-09-09T09:59:40.394Z,4.40
2018-09-09T10:01:17.335Z,3.00
2018-09-09T10:02:53.186Z,5.00
2018-09-09T10:04:29.763Z,4.80
2018-09-09T10:06:06.792Z,3.00
2018-09-09T10:07:44.183Z,5.00
2018-09-09T10:09:20.583Z,4.00
2018-09-09T10:10:58.679Z,3.20
2018-09-09T10:12:37.803Z,5.20
2018-09-09T10:14:16.474Z,5.00
2018-09-09T10:15:56.286Z,4.00
2018-09-09T10:17:34.818Z,4.00
2018-09-09T10:19:10.116Z,5.00
2018-09-09T10:20:46.931Z,4.80
2018-09-09T10:22:23.513Z,5.80
2018-09-09T10:24:00.345Z,4.40
2018-09-09T10:25:36.354Z,4.20
2018-09-09T10:27:12.504Z,5.00
2018-09-09T10:28:50.507Z,2.00
2018-09-09T10:30:26.109Z,6.40
2018-09-09T10:32:03.840Z,4.00
2018-09-09T10:33:39.257Z,4.40
2018-09-09T10:36:28.654Z,4.00
2018-09-09T10:38:04.152Z,3.00
2018-09-09T10:39:40.332Z,4.00
2018-09-09T10:41:15.645Z,4.20
2018-09-09T10:42:51.330Z,3.80
2018-09-09T10:44:30.055Z,4.20
2018-09-09T10:46:08.802Z,4.60
2018-09-09T10:47:47.819Z,3.00
2018-09-09T10:49:29.839Z,4.00
2018-09-09T10:51:05.656Z,3.00
2018-09-09T10:52:43.041Z,2.20
2018-09-09T10:54:24.478Z,2.40
2018-09-09T10:56:01.314Z,2.00
2018-09-09T10:57:37.241Z,3.60
2018-09-09T10:59:14.001Z,2.60
2018-09-09T11:00:51.679Z,3.60
2018-09-09T11:02:28.591Z,2.00
2018-09-09T11:04:05.346Z,1.20
2018-09-09T11:05:42.453Z,3.00
2018-09-09T11:07:18.760Z,2.60
2018-09-09T11:08:55.551Z,2.60
2018-09-09T11:10:33.916Z,3.20
2018-09-09T11:12:12.310Z,2.00
2018-09-09T11:13:47.891Z,3.00
2018-09-09T11:15:23.524Z,3.00
2018-09-09T11:17:07.019Z,3.80
2018-09-09T11:18:43.551Z,2.80
2018-09-09T11:20:20.505Z,4.00
2018-09-09T11:21:58.394Z,3.40
2018-09-09T11:23:34.313Z,3.00
2018-09-09T11:25:11.679Z,4.20
2018-09-09T11:26:50.469Z,4.00
2018-09-09T11:28:29.222Z,4.00
2018-09-09T11:30:09.175Z,3.00
2018-09-09T11:31:46.852Z,3.00
2018-09-09T11:33:22.414Z,4.20
2018-09-09T11:34:58.984Z,4.00
2018-09-09T11:36:35.179Z,3.40
2018-09-09T11:38:12.304Z,3.00
2018-09-09T11:39:58.602Z,2.00
2018-09-09T11:47:39.371Z,2.20
2018-09-09T11:49:18.666Z,2.00
2018-09-09T11:51:00.237Z,4.20
2018-09-09T11:52:48.251Z,4.40
2018-09-09T11:54:27.885Z,2.40
2018-09-09T11:56:04.896Z,4.00
2018-09-09T11:58:16.425Z,2.60
2018-09-09T11:59:54.143Z,4.00
2018-09-09T12:01:31.956Z,3.00
2018-09-09T12:03:07.832Z,4.80
2018-09-09T12:04:49.810Z,4.00
2018-09-09T12:06:26.425Z,3.00
2018-09-09T12:08:06.353Z,2.00
2018-09-09T12:09:42.067Z,3.40
2018-09-09T12:11:20.033Z,3.40
2018-09-09T12:12:56.621Z,3.00
2018-09-09T12:14:32.038Z,3.20
2018-09-09T12:16:13.195Z,3.00
2018-09-09T12:17:57.349Z,2.00
2018-09-09T12:19:43.075Z,3.00
2018-09-09T12:21:21.891Z,2.40
2018-09-09T12:22:58.566Z,1.80
2018-09-09T12:24:33.998Z,1.80
2018-09-09T12:26:09.514Z,1.80
2018-09-09T12:27:46.393Z,1.40
2018-09-09T12:29:22.932Z,2.00
2018-09-09T12:30:59.481Z,2.20
2018-09-09T12:32:35.350Z,2.80
2018-09-09T12:34:21.046Z,2.00
2018-09-09T12:36:00.410Z,2.00
2018-09-09T12:37:40.175Z,3.00
2018-09-09T12:39:29.281Z,3.00
2018-09-09T12:41:09.344Z,2.60
2018-09-09T12:42:45.539Z,3.00
2018-09-09T12:44:28.116Z,3.00
2018-09-09T12:46:10.658Z,2.00
2018-09-09T12:47:52.152Z,3.00
2018-09-09T12:49:28.242Z,1.00
2018-09-09T12:51:04.861Z,3.00
2018-09-09T12:52:41.913Z,3.00
2018-09-09T12:54:20.657Z,3.00
2018-09-09T12:55:57.217Z,3.00
2018-09-09T12:57:34.846Z,3.20
2018-09-09T12:59:13.699Z,3.00
2018-09-09T13:00:50.280Z,3.00
2018-09-09T13:02:25.881Z,4.00
2018-09-09T13:04:02.507Z,3.00
2018-09-09T13:05:39.118Z,4.00
2018-09-09T13:07:26.488Z,3.20
2018-09-09T13:09:04.321Z,5.00
2018-09-09T13:10:45.543Z,4.00
2018-09-09T13:12:21.836Z,3.00
2018-09-09T13:17:54.944Z,3.00
2018-09-09T13:19:35.097Z,3.80
2018-09-09T13:21:11.286Z,4.00
2018-09-09T13:22:47.409Z,3.00
2018-09-09T13:24:27.702Z,4.00
2018-09-09T13:26:05.087Z,4.20
2018-09-09T13:27:41.749Z,3.40
2018-09-09T13:29:17.699Z,4.00
2018-09-09T13:31:05.213Z,4.00
2018-09-09T13:32:44.487Z,3.80
2018-09-09T13:34:20.169Z,4.00
2018-09-09T13:35:58.462Z,4.00
2018-09-09T13:37:34.456Z,4.00
2018-09-09T13:39:13.489Z,3.20
2018-09-09T13:40:52.871Z,3.20
2018-09-09T13:42:31.071Z,4.00
2018-09-09T13:44:11.837Z,3.80
2018-09-09T13:45:47.478Z,3.00
2018-09-09T13:47:23.543Z,3.00
2018-09-09T13:49:01.543Z,4.60
2018-09-09T13:50:38.592Z,4.00
2018-09-09T13:52:23.938Z,4.00
2018-09-09T13:54:01.002Z,4.80
2018-09-09T13:55:36.309Z,4.20
2018-09-09T13:57:12.314Z,3.00
2018-09-09T13:58:48.995Z,5.00
2018-09-09T14:00:25.200Z,4.00
2018-09-09T14:02:00.555Z,5.00
2018-09-09T14:03:38.094Z,5.20
2018-09-09T14:05:17.742Z,4.80
2018-09-09T14:07:11.502Z,5.40
2018-09-09T14:08:50.080Z,4.00
2018-09-09T14:10:28.572Z,5.00
2018-09-09T14:12:06.420Z,5.80
2018-09-09T14:13:46.144Z,5.40
2018-09-09T14:15:25.733Z,3.00
2018-09-09T14:17:05.959Z,5.00
2018-09-09T14:18:43.541Z,5.00
2018-09-09T14:20:22.556Z,4.80
2018-09-09T14:21:59.291Z,4.00
2018-09-09T14:23:36.976Z,9.00
2018-09-09T14:25:16.484Z,2.20
2018-09-09T14:26:55.794Z,3.80
2018-09-09T14:28:35.518Z,4.00
2018-09-09T14:30:19.504Z,3.00
2018-09-09T14:31:57.989Z,4.60
2018-09-09T14:33:38.110Z,4.00
2018-09-09T14:35:20.358Z,5.00
2018-09-09T14:37:01.604Z,4.00
2018-09-09T14:38:42.851Z,4.00
2018-09-09T14:40:20.353Z,2.80
2018-09-09T14:41:59.558Z,4.00
2018-09-09T14:43:37.308Z,5.00
2018-09-09T14:45:39.351Z,4.00
2018-09-09T14:47:25.279Z,4.00
2018-09-09T14:49:20.969Z,3.60
2018-09-09T14:50:57.633Z,4.80
2018-09-09T14:52:37.465Z,4.00
2018-09-09T14:54:14.842Z,4.80
2018-09-09T14:55:53.651Z,4.00
2018-09-09T14:57:32.689Z,3.00
2018-09-09T14:59:10.850Z,3.40
2018-09-09T15:06:09.770Z,4.00
2018-09-09T15:07:51.114Z,3.00
2018-09-09T15:09:28.057Z,3.20
2018-09-09T15:11:05.266Z,4.00
2018-09-09T15:12:48.804Z,3.00
2018-09-09T15:14:27.583Z,4.00
2018-09-09T15:16:09.778Z,4.20
2018-09-09T15:17:49.877Z,6.00
2018-09-09T15:19:27.015Z,4.00
2018-09-09T15:21:05.787Z,2.80
2018-09-09T15:22:50.345Z,4.00
2018-09-09T15:24:29.572Z,3.00
2018-09-09T15:26:08.257Z,3.00
2018-09-09T15:27:43.894Z,4.40
2018-09-09T15:29:20.614Z,4.40
2018-09-09T15:31:01.383Z,3.00
2018-09-09T15:32:39.737Z,3.80
2018-09-09T15:34:15.287Z,4.00
2018-09-09T15:35:53.600Z,4.20
2018-09-09T15:37:31.713Z,4.00
2018-09-09T15:39:11.392Z,4.00
2018-09-09T15:40:47.397Z,3.80
2018-09-09T15:42:26.642Z,3.20
2018-09-09T15:44:06.142Z,4.00
2018-09-09T15:45:59.358Z,3.80
2018-09-09T15:47:40.520Z,3.60
2018-09-09T15:49:20.119Z,3.80
2018-09-09T15:51:03.639Z,4.20
2018-09-09T15:52:43.188Z,3.60
2018-09-09T15:54:26.560Z,3.00
2018-09-09T15:56:05.516Z,3.00
2018-09-09T15:57:49.308Z,4.00
2018-09-09T15:59:26.655Z,4.20
2018-09-09T16:01:12.097Z,3.60
2018-09-09T16:03:04.747Z,4.00
2018-09-09T16:04:44.578Z,3.00
2018-09-09T16:08:16.598Z,4.60
2018-09-09T16:09:56.526Z,3.80
2018-09-09T16:11:39.323Z,4.00
2018-09-09T16:13:26.366Z,4.40
2018-09-09T16:17:29.131Z,2.60
2018-09-09T16:21:12.215Z,3.80
2018-09-09T16:22:54.247Z,3.00
2018-09-09T16:24:37.056Z,4.00
2018-09-09T16:26:19.519Z,3.40
2018-09-09T16:28:04.819Z,3.40
2018-09-09T16:29:49.942Z,3.00
2018-09-09T16:31:34.870Z,4.00
2018-09-09T16:33:11.739Z,3.20
2018-09-09T16:34:52.473Z,3.40
2018-09-09T16:36:33.273Z,1.40
2018-09-09T16:38:13.316Z,2.40
2018-09-09T16:39:55.533Z,3.20
2018-09-09T16:41:35.394Z,3.00
2018-09-09T16:43:11.376Z,4.00
2018-09-09T16:44:48.238Z,3.40
2018-09-09T16:46:26.480Z,3.80
2018-09-09T16:48:15.828Z,4.00
2018-09-09T16:49:59.469Z,2.00
2018-09-09T16:51:37.284Z,3.80
2018-09-09T16:53:29.084Z,3.00
2018-09-09T16:55:08.564Z,3.00
2018-09-09T16:57:07.899Z,4.00
2018-09-09T16:58:48.699Z,2.00
2018-09-09T17:00:40.657Z,3.20
2018-09-09T17:02:23.651Z,4.00
2018-09-09T17:04:08.939Z,7.20
2018-09-09T17:05:51.253Z,4.60
2018-09-09T17:07:30.115Z,4.00
2018-09-09T17:09:12.108Z,5.60
2018-09-09T17:10:52.271Z,4.00
2018-09-09T17:12:33.427Z,4.00
2018-09-09T17:14:13.648Z,4.00
2018-09-09T17:16:54.952Z,4.00
2018-09-09T17:18:35.046Z,3.60
2018-09-09T17:20:14.620Z,4.20
2018-09-09T17:21:57.345Z,5.80
2018-09-09T17:23:39.860Z,7.00
2018-09-09T17:25:34.704Z,6.00
2018-09-09T17:27:17.636Z,6.60
2018-09-09T17:28:59.326Z,6.00
2018-09-09T17:30:46.786Z,4.80
2018-09-09T17:32:35.097Z,8.40
2018-09-09T17:34:15.557Z,2.00
2018-09-09T17:35:57.945Z,5.80
2018-09-09T17:37:40.340Z,5.00
2018-09-09T17:39:16.357Z,4.20
2018-09-09T17:40:58.255Z,3.00
2018-09-09T17:42:44.931Z,3.80
2018-09-09T17:46:12.271Z,5.00
2018-09-09T17:47:59.432Z,4.60
2018-09-09T17:49:38.644Z,3.80
2018-09-09T17:51:18.600Z,4.60
2018-09-09T17:53:04.447Z,4.20
2018-09-09T17:54:41.545Z,5.00
2018-09-09T17:56:24.254Z,4.60
2018-09-09T17:58:04.091Z,5.00
2018-09-09T17:59:43.287Z,4.20
2018-09-09T18:01:29.119Z,6.60
2018-09-09T18:03:06.458Z,5.20
2018-09-09T18:04:59.960Z,5.00
2018-09-09T18:06:39.899Z,1.00
2018-09-09T18:10:10.981Z,2.00
2018-09-09T18:13:41.680Z,4.40
2018-09-09T18:15:23.021Z,5.00
2018-09-09T18:17:13.335Z,4.00
2018-09-09T18:18:51.990Z,7.80
2018-09-09T18:20:33.921Z,4.80
2018-09-09T18:22:15.472Z,9.00
2018-09-09T18:23:52.690Z,7.20
2018-09-09T18:25:30.206Z,5.80
2018-09-09T18:27:25.844Z,5.60
2018-09-09T18:33:22.652Z,4.20
2018-09-09T18:38:12.351Z,9.00
2018-09-09T18:42:18.720Z,8.00
2018-09-09T18:44:07.191Z,8.60
2018-09-09T18:45:59.795Z,6.80
2018-09-09T18:47:40.810Z,4.00
2018-09-09T18:49:28.208Z,13.80
2018-09-09T18:51:08.070Z,11.80
2018-09-09T18:52:44.641Z,9.20
2018-09-09T18:54:35.832Z,15.00
2018-09-09T18:56:17.748Z,18.00
2018-09-09T18:58:01.332Z,16.20
2018-09-09T18:59:42.651Z,14.80
2018-09-09T19:01:28.649Z,11.00
2018-09-09T19:03:26.313Z,5.00
2018-09-09T19:05:16.731Z,7.40
2018-09-09T19:07:08.624Z,7.00
2018-09-09T19:09:02.471Z,4.80
2018-09-09T19:10:52.535Z,5.00
2018-09-09T19:12:36.633Z,4.00
2018-09-09T19:14:17.315Z,5.20
2018-09-09T19:16:05.599Z,12.20
2018-09-09T19:17:51.310Z,8.00
2018-09-09T19:21:34.275Z,11.00
2018-09-09T19:23:14.805Z,8.40
2018-09-09T19:24:59.439Z,8.20
2018-09-09T19:26:40.039Z,8.40
2018-09-09T19:28:36.909Z,4.00
2018-09-09T19:30:46.427Z,7.20
2018-09-09T19:32:27.734Z,11.00
2018-09-09T19:34:04.363Z,12.20
2018-09-09T19:35:45.850Z,9.20
2018-09-09T19:37:23.637Z,7.40
2018-09-09T19:39:10.852Z,7.00
2018-09-09T19:40:47.099Z,7.80
2018-09-09T19:42:24.827Z,7.00
2018-09-09T19:44:05.203Z,7.00
2018-09-09T19:45:41.369Z,9.80
2018-09-09T19:47:19.483Z,9.00
2018-09-09T19:48:57.426Z,8.80
2018-09-09T19:50:34.123Z,8.80
2018-09-09T19:52:12.340Z,9.00
2018-09-09T19:53:51.061Z,6.80
2018-09-09T19:55:30.532Z,9.20
2018-09-09T19:57:08.924Z,5.40
2018-09-09T19:58:46.912Z,6.20
2018-09-09T20:00:22.445Z,7.20
2018-09-09T20:02:04.270Z,5.80
2018-09-09T20:03:44.347Z,10.40
2018-09-09T20:05:30.259Z,13.00
2018-09-09T20:07:11.434Z,5.40
2018-09-09T20:08:55.905Z,7.00
2018-09-09T20:10:34.352Z,6.60
2018-09-09T20:12:12.499Z,7.20
2018-09-09T20:13:48.720Z,8.00
2018-09-09T20:15:32.506Z,10.20
2018-09-09T20:17:18.014Z,7.00
2018-09-09T20:18:58.478Z,7.80
2018-09-09T20:22:30.577Z,5.20
2018-09-09T20:24:07.498Z,10.00
2018-09-09T20:25:46.105Z,10.40
2018-09-09T20:27:23.753Z,10.20
2018-09-09T20:29:00.622Z,7.00
2018-09-09T20:30:37.903Z,10.00
2018-09-09T20:32:18.692Z,8.00
2018-09-09T20:34:01.819Z,8.00
2018-09-09T20:35:43.940Z,10.20
2018-09-09T20:37:20.396Z,10.20
2018-09-09T20:39:02.138Z,9.60
2018-09-09T20:40:37.354Z,10.20
2018-09-09T20:42:18.391Z,9.60
2018-09-09T20:43:55.109Z,10.00
2018-09-09T20:45:35.698Z,10.00
2018-09-09T20:47:15.223Z,9.60
2018-09-09T20:48:56.601Z,9.20
2018-09-09T20:50:33.924Z,8.40
2018-09-09T20:53:59.915Z,9.60
2018-09-09T20:55:44.578Z,7.40
2018-09-09T20:57:27.567Z,9.00
2018-09-09T20:59:07.005Z,20.60
2018-09-09T21:00:46.591Z,8.80
2018-09-09T21:02:26.024Z,9.20
2018-09-09T21:05:46.405Z,10.80
2018-09-09T21:07:23.717Z,10.80
2018-09-09T21:09:01.701Z,9.00
2018-09-09T21:10:38.278Z,6.60
2018-09-09T21:12:17.516Z,9.40
2018-09-09T21:13:53.441Z,10.00
2018-09-09T21:15:30.762Z,9.80
2018-09-09T21:17:05.799Z,8.40
2018-09-09T21:18:42.397Z,10.00
2018-09-09T21:20:18.298Z,9.60
2018-09-09T21:21:54.443Z,7.20
2018-09-09T21:23:30.348Z,8.80
2018-09-09T21:25:08.130Z,8.20
2018-09-09T21:26:44.802Z,5.20
2018-09-09T21:28:21.018Z,6.20
2018-09-09T21:31:40.193Z,4.00
2018-09-09T21:33:17.123Z,6.00
2018-09-09T21:34:52.391Z,7.00
2018-09-09T21:36:28.593Z,6.00
2018-09-09T21:38:05.343Z,7.60
2018-09-09T21:39:41.286Z,7.00
2018-09-09T21:41:17.363Z,7.40
2018-09-09T21:42:54.883Z,7.00
2018-09-09T21:44:30.377Z,6.40
2018-09-09T21:46:07.933Z,6.20
2018-09-09T21:47:45.784Z,4.60
2018-09-09T21:49:21.944Z,6.00
2018-09-09T21:50:58.507Z,6.00
2018-09-09T21:52:36.000Z,6.00
2018-09-09T21:54:15.980Z,4.00
2018-09-09T21:55:51.310Z,7.00
2018-09-09T21:57:27.804Z,6.80
2018-09-09T21:59:04.211Z,4.00
2018-09-09T22:00:46.721Z,6.20
2018-09-09T22:02:22.631Z,6.00
2018-09-09T22:04:00.196Z,6.00
2018-09-09T22:05:35.722Z,6.00
2018-09-09T22:07:14.180Z,4.40
2018-09-09T22:08:51.573Z,3.00
2018-09-09T22:12:17.378Z,5.40
2018-09-09T22:13:53.404Z,6.20
2018-09-09T22:15:29.012Z,6.40
2018-09-09T22:17:05.066Z,4.40
2018-09-09T22:18:41.292Z,5.60
2018-09-09T22:20:18.074Z,6.00
2018-09-09T22:21:58.133Z,5.60
2018-09-09T22:23:35.047Z,3.60
2018-09-09T22:25:14.014Z,6.00
2018-09-09T22:26:51.034Z,4.00
2018-09-09T22:28:36.044Z,6.00
2018-09-09T22:30:16.122Z,6.40
2018-09-09T22:31:56.939Z,6.00
2018-09-09T22:33:34.163Z,5.60